Time;durP1;ratioP1;P1;durP2;ratioP2;P2;SDS_P1;SDS_P2;PMS_P1;PMS_P2;Temp;Humidity;BMP_temperature;BMP_pressure;BME280_temperature;BME280_humidity;BME280_pressure;Samples;Min_cycle;Max_cycle;Signal;HPM_P1;HPM_P2
2023/02/26 00:01:14;;;;;;;5.83;1.73;;;-0.60;99.90;;;;;;5069160;28;20025;-66
2023/02/26 00:03:40;;;;;;;5.57;1.73;;;-0.60;99.90;;;;;;5065556;28;20037;-65
2023/02/26 00:06:06;;;;;;;6.03;2.93;;;-0.60;99.90;;;;;;5069098;28;20035;-65
2023/02/26 00:08:32;;;;;;;4.80;1.70;;;-0.60;99.90;;;;;;5069997;28;20063;-65
2023/02/26 00:11:00;;;;;;;4.63;1.80;;;-0.60;99.90;;;;;;5063102;28;20096;-65
2023/02/26 00:13:27;;;;;;;16.67;2.47;;;-0.50;99.90;;;;;;5051530;28;20048;-66
2023/02/26 00:15:57;;;;;;;5.00;1.53;;;-0.50;99.90;;;;;;5068538;28;20032;-65
2023/02/26 00:18:23;;;;;;;9.07;1.70;;;-0.50;99.90;;;;;;5071791;28;20028;-65
2023/02/26 00:20:49;;;;;;;6.00;2.07;;;-0.50;99.90;;;;;;5048296;28;20031;-64
2023/02/26 00:23:16;;;;;;;6.37;2.00;;;-0.60;99.90;;;;;;5046676;28;20527;-66
2023/02/26 00:25:42;;;;;;;12.33;1.60;;;-0.60;99.90;;;;;;5050300;28;20036;-65
2023/02/26 00:28:08;;;;;;;5.20;1.83;;;-0.60;99.90;;;;;;5050988;28;20017;-66
2023/02/26 00:30:34;;;;;;;8.83;1.43;;;-0.60;99.90;;;;;;5065536;28;20044;-65
2023/02/26 00:33:00;;;;;;;13.20;1.97;;;-0.60;99.90;;;;;;5068759;28;20403;-65
2023/02/26 00:35:27;;;;;;;1.93;1.30;;;-0.50;99.90;;;;;;5068905;28;20028;-65
2023/02/26 00:38:08;;;;;;;3.23;1.07;;;-0.50;99.90;;;;;;5067610;28;20038;-65
2023/02/26 00:40:48;;;;;;;3.73;1.20;;;-0.40;99.90;;;;;;5070570;28;20104;-64
2023/02/26 00:43:24;;;;;;;9.73;2.50;;;-0.40;99.90;;;;;;5041834;28;20059;-64
2023/02/26 00:46:09;;;;;;;10.63;1.60;;;-0.40;99.90;;;;;;5060294;28;20059;-66
2023/02/26 00:48:34;;;;;;;;;;;-0.40;99.90;;;;;;5065147;28;20029;-65
2023/02/26 00:51:15;;;;;;;9.33;1.67;;;-0.40;99.90;;;;;;5065866;28;20012;-65
2023/02/26 00:54:05;;;;;;;10.60;1.83;;;-0.40;99.90;;;;;;5066383;28;20016;-65
2023/02/26 00:56:31;;;;;;;6.53;2.23;;;-0.40;99.90;;;;;;5068065;28;20481;-65
2023/02/26 00:58:56;;;;;;;6.07;2.53;;;-0.40;99.90;;;;;;5070495;28;20037;-65
2023/02/26 01:01:22;;;;;;;8.27;1.90;;;-0.40;99.90;;;;;;5067202;28;20100;-65
2023/02/26 01:03:48;;;;;;;2.60;1.30;;;-0.40;99.90;;;;;;5062039;28;20502;-65
2023/02/26 01:06:17;;;;;;;4.47;1.53;;;-0.40;99.90;;;;;;5068096;28;20028;-65
2023/02/26 01:09:24;;;;;;;7.13;1.60;;;-0.40;99.90;;;;;;5069822;28;20013;-63
2023/02/26 01:11:50;;;;;;;4.63;1.43;;;-0.40;99.90;;;;;;5068952;28;20035;-65
2023/02/26 01:14:16;;;;;;;6.00;1.63;;;-0.40;99.90;;;;;;5065592;28;20031;-65
2023/02/26 01:17:10;;;;;;;6.93;1.93;;;-0.50;99.90;;;;;;5069980;28;20037;-65
2023/02/26 01:19:41;;;;;;;3.27;1.63;;;-0.50;99.90;;;;;;5069273;28;20039;-66
2023/02/26 01:22:27;;;;;;;6.17;1.60;;;-0.60;99.90;;;;;;5068137;28;20025;-65
2023/02/26 01:25:04;;;;;;;6.70;1.27;;;-0.60;99.90;;;;;;5047587;28;20469;-65
2023/02/26 01:27:30;;;;;;;5.83;1.60;;;-0.60;99.90;;;;;;5066104;28;20063;-65
2023/02/26 01:29:55;;;;;;;6.03;1.40;;;-0.60;99.90;;;;;;5070244;28;20064;-65
2023/02/26 01:32:27;;;;;;;4.17;2.33;;;-0.70;99.90;;;;;;5064893;28;20036;-65
2023/02/26 01:35:08;;;;;;;3.83;1.50;;;-0.60;99.90;;;;;;5067185;28;20066;-66
2023/02/26 01:38:01;;;;;;;3.33;1.70;;;-0.70;99.90;;;;;;5062623;28;20037;-65
2023/02/26 01:41:02;;;;;;;6.97;1.80;;;-0.70;99.90;;;;;;5061609;28;20032;-65
2023/02/26 01:43:42;;;;;;;6.50;1.80;;;-0.70;99.90;;;;;;5038866;28;20045;-66
2023/02/26 01:46:44;;;;;;;4.37;1.73;;;-0.80;99.90;;;;;;5065583;28;20047;-65
2023/02/26 01:49:15;;;;;;;5.63;1.77;;;-0.80;99.90;;;;;;5062796;28;20023;-67
2023/02/26 01:51:45;;;;;;;4.47;2.20;;;-0.80;99.90;;;;;;5067226;28;20078;-65
2023/02/26 01:54:12;;;;;;;5.13;1.80;;;-0.90;99.90;;;;;;5047766;28;20037;-65
2023/02/26 01:56:39;;;;;;;6.10;1.93;;;-0.90;99.90;;;;;;5065024;28;20140;-65
2023/02/26 01:59:08;;;;;;;4.33;1.80;;;-0.90;99.90;;;;;;5070481;28;20036;-65
2023/02/26 02:01:38;;;;;;;4.67;1.93;;;-1.00;99.90;;;;;;5069054;28;20052;-66
2023/02/26 02:04:08;;;;;;;11.33;2.70;;;-0.90;99.90;;;;;;5050634;28;20055;-66
2023/02/26 02:06:34;;;;;;;8.93;2.03;;;-0.90;99.90;;;;;;5064797;28;20136;-66
2023/02/26 02:09:04;;;;;;;5.20;1.73;;;-0.90;99.90;;;;;;5067652;28;20131;-65
2023/02/26 02:11:30;;;;;;;4.00;2.03;;;-0.90;99.90;;;;;;5060360;28;20678;-65
2023/02/26 02:14:35;;;;;;;3.77;1.70;;;-0.90;99.90;;;;;;5062347;28;20115;-66
2023/02/26 02:17:31;;;;;;;4.40;1.77;;;-0.90;99.90;;;;;;5064778;28;20044;-65
2023/02/26 02:20:15;;;;;;;7.20;1.73;;;-0.90;99.90;;;;;;5050406;28;20033;-65
2023/02/26 02:23:09;;;;;;;9.73;2.43;;;-0.90;99.90;;;;;;5065459;28;20093;-66
2023/02/26 02:25:34;;;;;;;6.60;2.40;;;-0.90;99.90;;;;;;5058479;28;20036;-65
2023/02/26 02:28:06;;;;;;;4.10;1.60;;;-0.90;99.90;;;;;;5064774;28;20028;-65
2023/02/26 02:30:36;;;;;;;5.33;2.17;;;-0.90;99.90;;;;;;5050318;28;20606;-66
2023/02/26 02:33:09;;;;;;;8.10;2.67;;;-0.90;99.90;;;;;;5068498;28;20051;-66
2023/02/26 02:35:47;;;;;;;4.13;1.80;;;-0.90;99.90;;;;;;5064499;28;20031;-63
2023/02/26 02:38:19;;;;;;;4.37;2.17;;;-1.00;99.90;;;;;;5066781;28;20107;-65
2023/02/26 02:40:54;;;;;;;5.60;2.50;;;-1.00;99.90;;;;;;5066421;28;20032;-66
2023/02/26 02:43:24;;;;;;;8.53;2.20;;;-1.10;99.90;;;;;;5037967;28;20036;-65
2023/02/26 02:45:59;;;;;;;9.63;2.47;;;-1.10;99.90;;;;;;5069439;28;20085;-65
2023/02/26 02:48:30;;;;;;;6.20;2.63;;;-1.10;99.90;;;;;;5064254;28;20028;-65
2023/02/26 02:51:25;;;;;;;7.40;2.40;;;-1.00;99.90;;;;;;5051869;28;20027;-65
2023/02/26 02:53:56;;;;;;;8.10;2.40;;;-1.00;99.90;;;;;;5058912;28;20048;-65
2023/02/26 02:56:40;;;;;;;10.53;2.50;;;-1.00;99.90;;;;;;5068065;28;20031;-65
2023/02/26 02:59:27;;;;;;;3.23;1.83;;;-1.00;99.90;;;;;;5053153;28;20114;-65
2023/02/26 03:02:16;;;;;;;9.17;2.20;;;-1.00;99.90;;;;;;5066208;28;20039;-65
2023/02/26 03:04:42;;;;;;;12.17;2.40;;;-1.00;99.90;;;;;;5051653;28;20024;-65
2023/02/26 03:07:08;;;;;;;8.17;1.90;;;-1.00;99.90;;;;;;5068527;28;20041;-65
2023/02/26 03:09:34;;;;;;;5.80;1.70;;;-1.00;99.90;;;;;;5060987;28;20479;-65
2023/02/26 03:11:59;;;;;;;7.67;2.40;;;-1.00;99.90;;;;;;5065184;28;20021;-65
2023/02/26 03:14:26;;;;;;;8.10;2.13;;;-1.10;99.90;;;;;;5066303;28;20107;-65
2023/02/26 03:17:07;;;;;;;4.07;2.80;;;-1.10;99.90;;;;;;5067706;28;20039;-65
2023/02/26 03:19:44;;;;;;;5.33;2.63;;;-1.10;99.90;;;;;;5050271;28;20029;-65
2023/02/26 03:22:19;;;;;;;10.00;2.17;;;-1.10;99.90;;;;;;5063611;28;20571;-65
2023/02/26 03:25:13;;;;;;;;;;;-1.10;99.90;;;;;;5065361;28;20111;-65
2023/02/26 03:27:50;;;;;;;6.57;1.92;;;-1.10;99.90;;;;;;4977898;28;19914;-66
2023/02/26 03:30:41;;;;;;;4.60;2.00;;;-1.10;99.90;;;;;;5065022;28;20538;-66
2023/02/26 03:33:18;;;;;;;12.03;2.10;;;-1.10;99.90;;;;;;5067038;28;20032;-66
2023/02/26 03:35:54;;;;;;;3.10;1.70;;;-1.10;99.90;;;;;;5066962;28;20040;-65
2023/02/26 03:38:39;;;;;;;15.87;2.07;;;-1.10;99.90;;;;;;5044067;28;20016;-65
2023/02/26 03:41:13;;;;;;;6.13;2.10;;;-1.10;99.90;;;;;;5066236;28;20051;-65
2023/02/26 03:43:45;;;;;;;4.22;2.08;;;-1.10;99.90;;;;;;5039045;28;20226;-66
2023/02/26 03:46:15;;;;;;;8.23;2.37;;;-1.10;99.90;;;;;;5068623;28;20036;-65
2023/02/26 03:48:42;;;;;;;6.40;1.83;;;-1.20;99.90;;;;;;5073428;28;20021;-65
2023/02/26 03:51:11;;;;;;;4.90;1.73;;;-1.20;99.90;;;;;;5071468;28;20039;-66
2023/02/26 03:54:06;;;;;;;2.67;1.83;;;-1.20;99.90;;;;;;5067819;28;20029;-65
2023/02/26 03:56:32;;;;;;;3.30;1.90;;;-1.20;99.90;;;;;;5063367;28;20028;-65
2023/02/26 03:58:57;;;;;;;3.20;2.13;;;-1.20;99.90;;;;;;5073451;28;20032;-65
2023/02/26 04:01:34;;;;;;;7.00;2.20;;;-1.20;99.90;;;;;;5066218;28;20028;-65
2023/02/26 04:04:11;;;;;;;4.70;2.03;;;-1.20;99.90;;;;;;5069301;28;20033;-65
2023/02/26 04:06:37;;;;;;;4.47;2.47;;;-1.20;99.90;;;;;;5072837;28;20127;-64
2023/02/26 04:09:03;;;;;;;4.87;1.77;;;-1.20;99.90;;;;;;5054629;28;20024;-64
2023/02/26 04:11:30;;;;;;;5.87;2.60;;;-1.10;99.90;;;;;;5051537;28;20024;-64
2023/02/26 04:13:56;;;;;;;4.10;1.90;;;-1.10;99.90;;;;;;5069927;28;20028;-64
2023/02/26 04:16:22;;;;;;;4.77;2.20;;;-1.20;99.90;;;;;;5071720;28;20112;-64
2023/02/26 04:18:48;;;;;;;3.70;2.47;;;-1.20;99.90;;;;;;5069952;28;20060;-65
2023/02/26 04:21:16;;;;;;;4.30;2.30;;;-1.20;99.90;;;;;;5066353;28;20454;-65
2023/02/26 04:23:42;;;;;;;4.90;2.20;;;-1.20;99.90;;;;;;5064335;28;20043;-66
2023/02/26 04:26:08;;;;;;;10.20;2.50;;;-1.20;99.90;;;;;;5053837;28;20025;-64
2023/02/26 04:28:36;;;;;;;4.37;1.70;;;-1.20;99.90;;;;;;5067107;28;20017;-64
2023/02/26 04:31:02;;;;;;;7.93;1.97;;;-1.20;99.90;;;;;;5068000;28;20017;-65
2023/02/26 04:33:28;;;;;;;3.57;1.80;;;-1.30;99.90;;;;;;5069356;28;20013;-65
2023/02/26 04:35:54;;;;;;;3.63;2.00;;;-1.40;99.90;;;;;;5067524;28;20448;-64
2023/02/26 04:38:19;;;;;;;3.63;1.97;;;-1.40;99.90;;;;;;5069019;28;20035;-66
2023/02/26 04:40:45;;;;;;;5.63;2.20;;;-1.40;99.90;;;;;;5063842;28;20630;-65
2023/02/26 04:43:11;;;;;;;5.20;2.03;;;-1.40;99.90;;;;;;5046393;28;20044;-66
2023/02/26 04:45:37;;;;;;;7.23;1.83;;;-1.40;99.90;;;;;;5071505;28;20021;-65
2023/02/26 04:48:02;;;;;;;4.93;1.83;;;-1.40;99.90;;;;;;5071723;28;20028;-66
2023/02/26 04:50:28;;;;;;;4.43;1.77;;;-1.30;99.90;;;;;;5071805;28;20063;-66
2023/02/26 04:52:53;;;;;;;8.63;1.77;;;-1.30;99.90;;;;;;5070723;28;20157;-66
2023/02/26 04:55:19;;;;;;;2.33;1.67;;;-1.20;99.90;;;;;;5070438;28;20430;-65
2023/02/26 04:57:44;;;;;;;4.37;1.80;;;-1.20;99.90;;;;;;5070966;28;20028;-66
2023/02/26 05:00:11;;;;;;;5.27;1.80;;;-1.10;99.90;;;;;;5072008;28;20078;-65
2023/02/26 05:02:36;;;;;;;5.93;1.87;;;-1.10;99.90;;;;;;5049036;28;20052;-66
2023/02/26 05:05:02;;;;;;;8.70;1.97;;;-1.10;99.90;;;;;;5064841;28;20408;-65
2023/02/26 05:07:28;;;;;;;4.33;1.43;;;-1.10;99.90;;;;;;5070327;28;20459;-65
2023/02/26 05:09:54;;;;;;;4.47;1.57;;;-1.10;99.90;;;;;;5068323;28;20024;-65
2023/02/26 05:12:19;;;;;;;7.00;1.63;;;-1.20;99.90;;;;;;5051881;28;20017;-66
2023/02/26 05:14:45;;;;;;;2.57;1.30;;;-1.20;99.90;;;;;;5069888;28;20448;-66
2023/02/26 05:17:10;;;;;;;3.40;1.43;;;-1.20;99.90;;;;;;5051748;28;20016;-66
2023/02/26 05:19:36;;;;;;;3.90;1.77;;;-1.10;99.90;;;;;;5069683;28;20403;-65
2023/02/26 05:22:01;;;;;;;6.20;1.83;;;-1.20;99.90;;;;;;5065458;28;20063;-66
2023/02/26 05:24:27;;;;;;;7.13;2.07;;;-1.10;99.90;;;;;;5065365;28;20433;-65
2023/02/26 05:26:53;;;;;;;7.83;1.50;;;-1.00;99.90;;;;;;5067412;28;20025;-65
2023/02/26 05:29:18;;;;;;;4.30;1.90;;;-1.10;99.90;;;;;;5067376;28;20403;-66
2023/02/26 05:31:44;;;;;;;6.00;1.30;;;-1.10;99.90;;;;;;5068641;28;20060;-65
2023/02/26 05:34:09;;;;;;;2.87;1.40;;;-1.00;99.90;;;;;;5070265;28;20036;-66
2023/02/26 05:36:35;;;;;;;2.30;1.60;;;-1.10;99.90;;;;;;5063810;28;20021;-66
2023/02/26 05:39:00;;;;;;;7.27;1.60;;;-1.10;99.90;;;;;;5069715;28;20028;-65
2023/02/26 05:41:26;;;;;;;3.60;2.00;;;-1.00;99.90;;;;;;5068362;28;20024;-67
2023/02/26 05:43:52;;;;;;;3.57;1.67;;;-1.10;99.90;;;;;;5046197;28;20123;-66
2023/02/26 05:46:17;;;;;;;3.90;1.93;;;-1.10;99.90;;;;;;5069195;28;20408;-66
2023/02/26 05:48:43;;;;;;;6.20;2.00;;;-1.20;99.90;;;;;;5069770;28;20025;-66
2023/02/26 05:51:09;;;;;;;3.50;1.63;;;-1.20;99.90;;;;;;5066736;28;20025;-65
2023/02/26 05:53:35;;;;;;;5.03;1.67;;;-1.30;99.90;;;;;;5062608;28;20510;-66
2023/02/26 05:56:00;;;;;;;5.00;1.43;;;-1.40;99.90;;;;;;5060209;28;20488;-64
2023/02/26 05:58:26;;;;;;;3.43;1.47;;;-1.40;99.90;;;;;;5069627;28;20028;-65
2023/02/26 06:00:52;;;;;;;3.80;1.73;;;-1.40;99.90;;;;;;5061931;28;20480;-66
2023/02/26 06:03:17;;;;;;;8.07;1.60;;;-1.40;99.90;;;;;;5067864;28;20415;-66
2023/02/26 06:05:43;;;;;;;2.83;1.57;;;-1.50;99.90;;;;;;5065708;28;20028;-67
2023/02/26 06:08:10;;;;;;;4.93;1.87;;;-1.50;99.90;;;;;;5071397;28;20025;-65
2023/02/26 06:10:36;;;;;;;5.73;1.50;;;-1.50;99.90;;;;;;5064996;28;20024;-66
2023/02/26 06:13:02;;;;;;;12.07;1.90;;;-1.50;99.90;;;;;;5069126;28;20020;-65
2023/02/26 06:15:28;;;;;;;5.47;1.80;;;-1.60;99.90;;;;;;5066802;28;20029;-66
2023/02/26 06:17:53;;;;;;;7.73;1.87;;;-1.60;99.90;;;;;;5068531;28;20033;-66
2023/02/26 06:20:19;;;;;;;5.57;2.00;;;-1.60;99.90;;;;;;5069453;28;20391;-66
2023/02/26 06:22:45;;;;;;;1.80;1.43;;;-1.60;99.90;;;;;;5064042;28;20471;-66
2023/02/26 06:25:11;;;;;;;2.20;1.47;;;-1.60;99.90;;;;;;5067688;28;20074;-66
2023/02/26 06:27:36;;;;;;;6.97;1.50;;;-1.60;99.90;;;;;;5065589;28;20059;-66
2023/02/26 06:30:03;;;;;;;6.93;2.77;;;-1.50;99.90;;;;;;5067589;28;20464;-65
2023/02/26 06:32:29;;;;;;;7.90;1.87;;;-1.50;99.90;;;;;;5045418;28;20013;-66
2023/02/26 06:34:54;;;;;;;9.77;1.93;;;-1.40;99.90;;;;;;5070483;28;20112;-66
2023/02/26 06:37:20;;;;;;;3.57;1.60;;;-1.40;99.90;;;;;;5049762;28;20025;-65
2023/02/26 06:39:45;;;;;;;11.73;2.03;;;-1.40;99.90;;;;;;5068874;28;20538;-66
2023/02/26 06:42:11;;;;;;;5.83;1.90;;;-1.40;99.90;;;;;;5067555;28;20033;-66
2023/02/26 06:44:37;;;;;;;3.57;1.70;;;-1.40;99.90;;;;;;5053304;28;20051;-66
2023/02/26 06:47:02;;;;;;;6.03;2.00;;;-1.40;99.90;;;;;;5060658;28;20503;-65
2023/02/26 06:49:28;;;;;;;4.43;2.00;;;-1.30;99.90;;;;;;5044253;28;20027;-66
2023/02/26 06:51:53;;;;;;;12.73;3.30;;;-1.40;99.90;;;;;;5065710;28;20024;-66
2023/02/26 06:54:19;;;;;;;8.97;3.33;;;-1.40;99.90;;;;;;5067526;28;20028;-66
2023/02/26 06:56:45;;;;;;;9.83;2.73;;;-1.40;99.90;;;;;;5062839;28;20063;-65
2023/02/26 06:59:10;;;;;;;6.47;3.10;;;-1.30;99.90;;;;;;5050932;28;20033;-66
2023/02/26 07:01:36;;;;;;;5.00;2.10;;;-1.30;99.90;;;;;;5066711;28;20039;-66
2023/02/26 07:04:02;;;;;;;7.27;1.90;;;-1.30;99.90;;;;;;5062195;28;20396;-65
2023/02/26 07:06:27;;;;;;;6.67;2.50;;;-1.20;99.90;;;;;;5062469;28;20029;-65
2023/02/26 07:08:53;;;;;;;2.70;1.57;;;-1.20;99.90;;;;;;5065138;28;20028;-67
2023/02/26 07:11:19;;;;;;;4.87;1.90;;;-1.10;99.90;;;;;;5063619;28;20095;-66
2023/02/26 07:13:45;;;;;;;8.77;2.93;;;-1.10;99.90;;;;;;5069108;28;20108;-66
2023/02/26 07:16:11;;;;;;;6.60;1.93;;;-1.00;99.90;;;;;;5064158;28;20117;-67
2023/02/26 07:18:37;;;;;;;5.57;2.03;;;-0.90;99.90;;;;;;5067768;28;20024;-66
2023/02/26 07:21:03;;;;;;;5.90;1.87;;;-0.80;99.90;;;;;;5062138;28;20036;-66
2023/02/26 07:23:29;;;;;;;5.27;2.20;;;-0.70;99.90;;;;;;5068000;28;20039;-66
2023/02/26 07:25:55;;;;;;;8.30;2.13;;;-0.60;99.90;;;;;;5070619;28;20050;-65
2023/02/26 07:28:23;;;;;;;5.17;2.93;;;-0.50;99.90;;;;;;5070694;28;20033;-66
2023/02/26 07:30:48;;;;;;;9.47;2.40;;;-0.40;99.90;;;;;;5053844;28;20021;-65
2023/02/26 07:33:14;;;;;;;4.10;1.93;;;-0.30;99.90;;;;;;5071655;28;20596;-66
2023/02/26 07:35:40;;;;;;;4.40;1.53;;;-0.20;99.90;;;;;;5070369;28;20021;-66
2023/02/26 07:38:06;;;;;;;7.07;2.28;;;-0.10;99.90;;;;;;5069097;28;20028;-66
2023/02/26 07:40:32;;;;;;;8.27;2.28;;;0.00;99.90;;;;;;5068978;28;20449;-65
2023/02/26 07:42:57;;;;;;;4.90;2.60;;;0.00;99.90;;;;;;5069154;28;20027;-66
2023/02/26 07:45:23;;;;;;;10.88;2.45;;;0.00;99.90;;;;;;5055411;28;20434;-66
2023/02/26 07:47:50;;;;;;;8.65;2.40;;;0.00;99.90;;;;;;5070954;28;20078;-66
2023/02/26 07:50:16;;;;;;;3.30;2.42;;;0.00;99.90;;;;;;5072679;28;20024;-67
2023/02/26 07:52:42;;;;;;;8.30;2.30;;;-0.10;99.90;;;;;;5069323;28;20368;-66
2023/02/26 07:55:09;;;;;;;4.93;2.30;;;-0.10;99.90;;;;;;5062204;28;20026;-66
2023/02/26 07:57:35;;;;;;;5.47;2.50;;;-0.20;99.90;;;;;;5071036;28;20032;-66
2023/02/26 08:00:00;;;;;;;3.43;1.80;;;-0.20;99.90;;;;;;5049402;28;20115;-66
2023/02/26 08:02:26;;;;;;;4.65;1.92;;;-0.20;99.90;;;;;;5064763;28;20078;-66
2023/02/26 08:04:52;;;;;;;8.00;2.10;;;-0.10;99.90;;;;;;5072129;28;20033;-66
2023/02/26 08:07:18;;;;;;;5.10;2.40;;;-0.10;99.90;;;;;;5069689;28;20047;-66
2023/02/26 08:09:44;;;;;;;6.55;2.35;;;-0.10;99.90;;;;;;5051511;28;20062;-66
2023/02/26 08:12:09;;;;;;;3.58;2.00;;;0.00;99.90;;;;;;5068869;28;20054;-66
2023/02/26 08:14:35;;;;;;;7.03;1.83;;;0.20;99.90;;;;;;5053019;28;20028;-68
2023/02/26 08:17:01;;;;;;;3.13;1.83;;;0.20;99.90;;;;;;5066900;28;20085;-67
2023/02/26 08:19:26;;;;;;;6.13;1.65;;;0.20;99.90;;;;;;5070323;28;20412;-65
2023/02/26 08:21:54;;;;;;;3.03;1.70;;;0.30;99.90;;;;;;5071001;28;20107;-66
2023/02/26 08:24:20;;;;;;;2.88;1.77;;;0.30;99.90;;;;;;5072966;28;20025;-65
2023/02/26 08:26:45;;;;;;;4.38;1.35;;;0.40;99.90;;;;;;5062289;28;20029;-65
2023/02/26 08:29:11;;;;;;;3.42;1.52;;;0.40;99.90;;;;;;5071032;28;20499;-66
2023/02/26 08:31:37;;;;;;;6.18;1.73;;;0.40;99.90;;;;;;5066539;28;20021;-66
2023/02/26 08:34:02;;;;;;;2.33;1.40;;;0.40;99.90;;;;;;5064159;28;20033;-66
2023/02/26 08:36:29;;;;;;;6.10;1.58;;;0.50;99.90;;;;;;5070420;28;20020;-66
2023/02/26 08:38:55;;;;;;;5.00;1.73;;;0.60;99.90;;;;;;5070750;28;20071;-67
2023/02/26 08:41:21;;;;;;;4.57;1.52;;;0.60;99.90;;;;;;5067835;28;20048;-66
2023/02/26 08:43:47;;;;;;;11.50;2.03;;;0.70;99.90;;;;;;5072291;28;20027;-67
2023/02/26 08:46:13;;;;;;;9.13;1.48;;;0.70;99.90;;;;;;5044640;28;20124;-66
2023/02/26 08:48:38;;;;;;;2.97;1.30;;;0.80;99.90;;;;;;5053273;28;20498;-67
2023/02/26 08:51:04;;;;;;;10.18;1.92;;;0.80;99.90;;;;;;5048862;28;20104;-67
2023/02/26 08:53:30;;;;;;;7.20;1.20;;;0.90;99.90;;;;;;5056736;28;20047;-66
2023/02/26 08:55:55;;;;;;;2.95;1.25;;;1.00;99.90;;;;;;5066906;28;20024;-67
2023/02/26 08:58:21;;;;;;;6.25;1.00;;;1.00;99.90;;;;;;5069527;28;20024;-67
2023/02/26 09:00:47;;;;;;;6.63;1.60;;;1.20;99.90;;;;;;5066708;28;20037;-68
2023/02/26 09:03:13;;;;;;;2.22;1.30;;;1.20;99.90;;;;;;5068744;28;20099;-66
2023/02/26 09:05:39;;;;;;;4.53;1.48;;;1.30;99.90;;;;;;5070008;28;20032;-67
2023/02/26 09:08:06;;;;;;;2.88;1.52;;;1.60;99.90;;;;;;5070215;28;20028;-66
2023/02/26 09:10:31;;;;;;;2.85;1.05;;;1.80;99.90;;;;;;5065436;28;20148;-67
2023/02/26 09:12:57;;;;;;;6.07;1.80;;;1.80;99.90;;;;;;5071317;28;20128;-69
2023/02/26 09:15:23;;;;;;;1.80;1.17;;;1.90;99.90;;;;;;5069941;28;20145;-66
2023/02/26 09:17:50;;;;;;;2.42;1.20;;;2.00;99.90;;;;;;5068061;28;20415;-67
2023/02/26 09:20:16;;;;;;;7.40;1.30;;;2.00;99.90;;;;;;5066046;28;20024;-67
2023/02/26 09:22:42;;;;;;;5.05;1.42;;;1.90;99.90;;;;;;5066229;28;20552;-67
2023/02/26 09:25:08;;;;;;;4.00;1.20;;;1.90;99.90;;;;;;5059567;28;20020;-67
2023/02/26 09:27:34;;;;;;;5.50;1.23;;;1.90;99.90;;;;;;5066890;28;20028;-66
2023/02/26 09:30:00;;;;;;;2.95;0.80;;;2.10;99.90;;;;;;5069337;28;20016;-66
2023/02/26 09:32:25;;;;;;;3.38;1.00;;;2.40;99.90;;;;;;5066791;28;20522;-65
2023/02/26 09:34:51;;;;;;;4.57;1.00;;;2.90;99.90;;;;;;5069347;28;20103;-65
2023/02/26 09:37:17;;;;;;;2.58;0.95;;;3.70;99.90;;;;;;5069897;28;20036;-66
2023/02/26 09:39:43;;;;;;;7.43;1.02;;;3.70;99.90;;;;;;5063713;28;20245;-65
2023/02/26 09:42:21;;;;;;;1.20;0.68;;;4.20;99.90;;;;;;5068792;28;20119;-65
2023/02/26 09:44:47;;;;;;;1.92;1.10;;;4.00;99.40;;;;;;5042897;28;20127;-66
2023/02/26 09:47:40;;;;;;;5.03;0.75;;;3.90;99.40;;;;;;5057240;28;20093;-66
2023/02/26 09:50:21;;;;;;;5.13;1.55;;;4.40;99.40;;;;;;5056590;28;20045;-66
2023/02/26 09:53:00;;;;;;;2.17;1.23;;;4.90;98.30;;;;;;5064848;28;20054;-65
2023/02/26 09:55:46;;;;;;;2.33;0.95;;;4.90;96.10;;;;;;5066491;28;20024;-64
2023/02/26 09:58:28;;;;;;;1.13;0.90;;;4.20;96.40;;;;;;5063492;28;20021;-65
2023/02/26 10:01:17;;;;;;;2.58;0.88;;;3.30;97.60;;;;;;5063092;28;20039;-65
2023/02/26 10:04:07;;;;;;;1.27;0.68;;;2.90;99.80;;;;;;5064468;28;20495;-65
2023/02/26 10:06:45;;;;;;;3.83;1.35;;;2.60;99.50;;;;;;5068748;28;20087;-65
2023/02/26 10:09:31;;;;;;;2.78;0.70;;;2.20;99.50;;;;;;5065137;28;20162;-65
2023/02/26 10:12:01;;;;;;;4.38;0.73;;;2.30;99.60;;;;;;5062164;28;20045;-65
2023/02/26 10:14:36;;;;;;;1.27;0.50;;;2.20;99.90;;;;;;5063387;28;20033;-65
2023/02/26 10:17:40;;;;;;;4.32;0.82;;;2.00;99.90;;;;;;5066020;28;20024;-65
2023/02/26 10:20:18;;;;;;;1.20;0.80;;;2.10;99.90;;;;;;5052116;28;20570;-65
2023/02/26 10:23:18;;;;;;;1.95;0.90;;;2.00;99.90;;;;;;5059163;28;20025;-66
2023/02/26 10:25:49;;;;;;;2.63;0.70;;;2.00;99.90;;;;;;5059746;28;20031;-65
2023/02/26 10:28:32;;;;;;;3.33;0.98;;;1.90;99.90;;;;;;5065351;28;20023;-64
2023/02/26 10:31:06;;;;;;;1.48;0.75;;;2.10;99.90;;;;;;5065632;28;20106;-65
2023/02/26 10:34:15;;;;;;;3.03;1.02;;;2.20;99.90;;;;;;5066904;28;20025;-66
2023/02/26 10:36:52;;;;;;;1.98;0.82;;;2.60;99.90;;;;;;4980988;28;20028;-65
2023/02/26 10:39:18;;;;;;;4.45;0.80;;;3.00;99.90;;;;;;5069108;28;20051;-65
2023/02/26 10:41:45;;;;;;;3.33;0.82;;;3.00;97.90;;;;;;5063703;28;20021;-65
2023/02/26 10:44:36;;;;;;;2.15;0.60;;;2.80;98.60;;;;;;5068061;28;20399;-65
2023/02/26 10:47:20;;;;;;;2.28;0.70;;;2.50;98.30;;;;;;5041471;28;20508;-65
2023/02/26 10:50:00;;;;;;;1.17;0.50;;;2.60;98.90;;;;;;5068103;28;20048;-67
2023/02/26 10:52:30;;;;;;;3.35;0.70;;;2.70;99.50;;;;;;5073657;22;20024;-61
2023/02/26 10:55:04;;;;;;;1.00;0.80;;;2.80;98.50;;;;;;5005468;28;20038;-65
2023/02/26 10:57:34;;;;;;;2.83;0.77;;;2.80;98.40;;;;;;5007636;28;20058;-65
2023/02/26 11:00:00;;;;;;;1.65;0.63;;;2.80;97.60;;;;;;4991669;28;20029;-62
2023/02/26 11:02:34;;;;;;;4.32;0.80;;;2.90;96.90;;;;;;4990398;28;20061;-65
2023/02/26 11:05:00;;;;;;;;;;;2.90;97.60;;;;;;5007266;28;20030;-65
2023/02/26 11:07:28;;;;;;;3.75;0.95;;;3.10;96.70;;;;;;5009737;28;19924;-63
2023/02/26 11:09:54;;;;;;;3.15;0.75;;;3.30;96.90;;;;;;5007431;28;20570;-65
2023/02/26 11:12:22;;;;;;;7.28;0.95;;;3.40;96.50;;;;;;5009281;28;20022;-65
2023/02/26 11:14:48;;;;;;;3.38;0.77;;;3.70;95.70;;;;;;5008073;28;20485;-65
2023/02/26 11:17:33;;;;;;;0.82;0.82;;;4.20;95.10;;;;;;5009982;28;20123;-65
2023/02/26 11:20:04;;;;;;;1.95;0.75;;;4.40;93.40;;;;;;5010120;28;20092;-65
2023/02/26 11:22:34;;;;;;;4.15;0.82;;;4.50;93.60;;;;;;4990770;28;20030;-64
2023/02/26 11:25:02;;;;;;;3.75;0.68;;;4.40;94.20;;;;;;5007181;28;20396;-64
2023/02/26 11:27:36;;;;;;;1.27;0.80;;;4.70;94.50;;;;;;5008127;28;20022;-65
2023/02/26 11:30:30;;;;;;;2.30;0.68;;;4.70;94.30;;;;;;5010211;28;20030;-65
2023/02/26 11:33:02;;;;;;;3.75;0.90;;;4.70;92.40;;;;;;5005962;28;20038;-64
2023/02/26 11:35:28;;;;;;;5.00;1.10;;;4.30;92.10;;;;;;5009270;28;20485;-64
2023/02/26 11:38:01;;;;;;;1.75;0.77;;;4.00;93.10;;;;;;5008369;28;20030;-65
2023/02/26 11:40:38;;;;;;;3.30;1.15;;;3.90;93.90;;;;;;4996343;28;20034;-63
2023/02/26 11:43:07;;;;;;;0.50;0.50;;;4.00;92.40;;;;;;5007636;28;20370;-64
2023/02/26 11:45:35;;;;;;;3.60;0.57;;;3.80;93.30;;;;;;4985737;28;20084;-64
2023/02/26 11:48:09;;;;;;;1.48;0.45;;;3.80;93.50;;;;;;5007742;28;20029;-64
2023/02/26 11:50:51;;;;;;;1.73;0.50;;;3.80;93.00;;;;;;4991555;28;20116;-64
2023/02/26 11:53:29;;;;;;;2.35;0.68;;;3.60;93.50;;;;;;5009092;28;20367;-64
2023/02/26 11:56:07;;;;;;;3.70;0.50;;;3.80;93.00;;;;;;5005534;28;20524;-64
2023/02/26 11:58:39;;;;;;;1.77;0.70;;;4.10;93.60;;;;;;5009336;28;20049;-64
2023/02/26 12:01:07;;;;;;;3.22;0.70;;;4.40;93.60;;;;;;5008246;28;20058;-65
2023/02/26 12:03:39;;;;;;;4.97;0.82;;;4.40;93.90;;;;;;5010378;28;20100;-65
2023/02/26 12:06:11;;;;;;;3.38;0.60;;;4.50;93.50;;;;;;5004596;28;20145;-65
2023/02/26 12:08:38;;;;;;;6.68;0.75;;;4.50;94.40;;;;;;5006650;28;20105;-65
2023/02/26 12:11:42;;;;;;;2.47;0.73;;;4.40;91.40;;;;;;5006808;28;20855;-65
2023/02/26 12:14:30;;;;;;;2.55;0.65;;;4.40;91.90;;;;;;5012232;28;20030;-64
2023/02/26 12:17:08;;;;;;;3.13;0.65;;;4.40;93.20;;;;;;5010390;28;20091;-64
2023/02/26 12:19:56;;;;;;;2.92;0.85;;;4.40;92.70;;;;;;5008491;28;20030;-64
2023/02/26 12:22:53;;;;;;;1.45;0.93;;;4.20;92.60;;;;;;5012036;28;20025;-65
2023/02/26 12:25:31;;;;;;;1.98;0.70;;;4.10;92.10;;;;;;5007306;28;20017;-65
2023/02/26 12:28:22;;;;;;;3.33;0.70;;;4.10;92.70;;;;;;5010029;28;20034;-64
2023/02/26 12:31:23;;;;;;;1.67;0.68;;;4.20;93.20;;;;;;5009591;28;20022;-65
2023/02/26 12:33:57;;;;;;;1.95;0.60;;;4.40;93.50;;;;;;5007776;28;20017;-64
2023/02/26 12:37:03;;;;;;;0.63;0.40;;;4.30;92.20;;;;;;5010092;28;20405;-64
2023/02/26 12:39:56;;;;;;;1.50;0.55;;;3.80;91.70;;;;;;5008110;28;20017;-64
2023/02/26 12:42:38;;;;;;;2.97;0.43;;;3.50;92.30;;;;;;5004622;28;20561;-65
2023/02/26 12:45:19;;;;;;;1.90;0.60;;;3.40;92.60;;;;;;5001214;28;20026;-64
2023/02/26 12:48:15;;;;;;;3.08;0.60;;;3.40;93.50;;;;;;4983699;28;20069;-65
2023/02/26 12:51:05;;;;;;;1.83;0.75;;;3.40;92.80;;;;;;5004748;28;20646;-65
2023/02/26 12:54:13;;;;;;;1.02;0.50;;;3.60;93.50;;;;;;5005832;28;20089;-63
2023/02/26 12:57:16;;;;;;;2.35;0.90;;;3.80;92.70;;;;;;5005093;28;20110;-64
2023/02/26 12:59:53;;;;;;;6.47;1.38;;;3.90;91.90;;;;;;5009209;28;20030;-65
2023/02/26 13:02:27;;;;;;;4.43;1.13;;;3.90;91.40;;;;;;5006290;28;20046;-65
2023/02/26 13:05:09;;;;;;;2.85;0.57;;;4.00;92.30;;;;;;5004619;28;20087;-65
2023/02/26 13:08:02;;;;;;;0.63;0.38;;;4.10;93.30;;;;;;5001452;28;20117;-65
2023/02/26 13:10:50;;;;;;;3.40;0.98;;;4.20;91.80;;;;;;4999367;28;20045;-64
2023/02/26 13:13:27;;;;;;;2.90;0.60;;;3.90;92.40;;;;;;5003330;28;20076;-64
2023/02/26 13:16:08;;;;;;;1.67;0.50;;;3.70;91.30;;;;;;4992019;28;20092;-65